Suisun City, California
Current Conditions -  °F | °C
As of 1:58 AM on Tuesday 27 Jan 2015 (Local Time) from KSUU Reporting Station
Broken Clouds Broken Clouds  
Wind Chill: 48°   Ceiling: 15000
Heat Index: 48°   Visibility: 8mi
Dew Point: 46°   Wind: 3mph
Humidity: 94%   Direction: 230°SW
Pressure: 30.04"   Gusts: NA
Location:  38.24°N, 122.03°W
Report Text: KSUU 270958Z AUTO 23003KT 8SM BKN150 09/08 A3004 RMK AO2 SLP179 T00870078 $
Loading
Personal Weather Stations






























Interactive Weather Map New forecast layout! Learn more

10-Day Weather Forecast

Advertisements
Track Severe Weather on mobile